Time;durP1;ratioP1;P1;durP2;ratioP2;P2;SDS_P1;SDS_P2;PMS_P1;PMS_P2;Temp;Humidity;BMP_temperature;BMP_pressure;BME280_temperature;BME280_humidity;BME280_pressure;Samples;Min_cycle;Max_cycle;Signal;HPM_P1;HPM_P2
2023/03/08 00:01:40;;;;;;;9.50;5.00;;;;;;;1.89;93.67;98682.51;104115;1276;100561;-77
2023/03/08 00:04:25;;;;;;;7.90;4.70;;;;;;;1.87;93.50;98685.92;104039;1276;99411;-76
2023/03/08 00:07:10;;;;;;;13.20;6.30;;;;;;;1.83;93.57;98686.55;104099;1290;100277;-75
2023/03/08 00:09:55;;;;;;;8.20;4.80;;;;;;;1.81;93.63;98693.34;104148;1273;99351;-76
2023/03/08 00:12:40;;;;;;;11.10;5.90;;;;;;;1.80;93.81;98686.23;104113;1273;103848;-76
2023/03/08 00:15:24;;;;;;;9.90;6.00;;;;;;;1.78;93.64;98682.48;104301;1274;99312;-76
2023/03/08 00:18:09;;;;;;;10.60;4.90;;;;;;;1.75;93.68;98682.98;104426;1273;99278;-77
2023/03/08 00:21:02;;;;;;;7.10;4.30;;;;;;;1.73;93.73;98685.52;104260;1280;99431;-75
2023/03/08 00:23:47;;;;;;;6.00;3.90;;;;;;;1.70;93.84;98688.10;104197;1272;99880;-76
2023/03/08 00:26:31;;;;;;;7.50;4.00;;;;;;;1.67;93.87;98684.84;104423;1273;103585;-75
2023/03/08 00:29:16;;;;;;;5.20;3.70;;;;;;;1.65;93.98;98688.52;104387;1277;100094;-75
2023/03/08 00:32:01;;;;;;;7.50;4.60;;;;;;;1.63;94.18;98691.04;104334;1274;99827;-76
2023/03/08 00:34:46;;;;;;;5.90;3.90;;;;;;;1.64;94.29;98691.49;104149;1274;99348;-75
2023/03/08 00:37:31;;;;;;;8.00;4.30;;;;;;;1.64;94.37;98686.54;103980;1275;99783;-77
2023/03/08 00:40:16;;;;;;;6.00;3.50;;;;;;;1.63;94.47;98685.30;104015;1273;102782;-77
2023/03/08 00:43:01;;;;;;;4.40;3.60;;;;;;;1.62;94.46;98684.31;104072;1277;99472;-77
2023/03/08 00:45:46;;;;;;;5.80;3.80;;;;;;;1.62;94.40;98681.52;104097;1277;99468;-76
2023/03/08 00:48:30;;;;;;;5.50;4.10;;;;;;;1.60;94.45;98685.41;103858;1280;99383;-75
2023/03/08 00:51:17;;;;;;;10.80;4.70;;;;;;;1.56;94.47;98684.62;104029;1274;99955;-77
2023/03/08 00:54:02;;;;;;;4.70;3.30;;;;;;;1.52;94.48;98676.42;103961;1277;103998;-76
2023/03/08 00:56:47;;;;;;;4.90;3.30;;;;;;;1.52;94.75;98671.39;104082;1277;99227;-77
2023/03/08 00:59:32;;;;;;;6.10;3.90;;;;;;;1.50;94.62;98669.14;104028;1276;100120;-76
2023/03/08 01:02:17;;;;;;;5.10;2.90;;;;;;;1.48;94.62;98661.95;104006;1277;99465;-76
2023/03/08 01:05:01;;;;;;;7.40;4.00;;;;;;;1.46;94.75;98659.04;104132;1274;100967;-77
2023/03/08 01:07:46;;;;;;;5.20;3.40;;;;;;;1.47;94.90;98654.91;104014;1275;104065;-77
2023/03/08 01:10:31;;;;;;;7.50;3.40;;;;;;;1.49;94.99;98650.45;104089;1274;100617;-76
2023/03/08 01:13:17;;;;;;;3.90;2.60;;;;;;;1.50;94.93;98655.02;104066;1274;99326;-77
2023/03/08 01:16:02;;;;;;;4.40;2.80;;;;;;;1.47;94.78;98656.09;103919;1273;99452;-75
2023/03/08 01:18:47;;;;;;;4.00;2.60;;;;;;;1.44;94.68;98655.02;104024;1274;100510;-76
2023/03/08 01:21:32;;;;;;;4.90;3.20;;;;;;;1.43;94.68;98659.77;104034;1274;102789;-77
2023/03/08 01:24:17;;;;;;;2.50;1.80;;;;;;;1.41;94.66;98662.31;104030;1274;100342;-76
2023/03/08 01:27:02;;;;;;;4.30;2.70;;;;;;;1.37;94.57;98665.08;104001;1273;99344;-76
2023/03/08 01:29:47;;;;;;;3.90;2.30;;;;;;;1.34;94.64;98670.46;104115;1273;99390;-76
2023/03/08 01:32:32;;;;;;;4.20;2.10;;;;;;;1.34;94.81;98675.98;103828;1274;99812;-76
2023/03/08 01:35:17;;;;;;;4.60;2.30;;;;;;;1.34;94.73;98677.52;104033;1279;102687;-76
2023/03/08 01:38:05;;;;;;;4.10;2.00;;;;;;;1.36;94.94;98674.35;103962;1273;100664;-76
2023/03/08 01:40:57;;;;;;;2.30;1.60;;;;;;;1.36;94.73;98670.19;104000;1288;99883;-75
2023/03/08 01:43:42;;;;;;;4.90;2.50;;;;;;;1.34;94.68;98669.95;104079;1278;99361;-77
2023/03/08 01:46:35;;;;;;;3.90;1.70;;;;;;;1.33;94.77;98674.50;104016;1276;99991;-76
2023/03/08 01:49:38;;;;;;;3.10;1.90;;;;;;;1.29;94.71;98678.73;104095;1277;102990;-77
2023/03/08 01:52:32;;;;;;;4.50;2.20;;;;;;;1.30;94.75;98678.55;104005;1277;100040;-76
2023/03/08 01:55:18;;;;;;;6.40;1.90;;;;;;;1.29;94.89;98675.97;104024;1277;99299;-74
2023/03/08 01:58:03;;;;;;;4.20;2.20;;;;;;;1.28;94.79;98676.77;103886;1279;99951;-76
2023/03/08 02:00:48;;;;;;;6.50;2.50;;;;;;;1.28;94.72;98676.27;104041;1277;99464;-76
2023/03/08 02:03:33;;;;;;;5.40;2.80;;;;;;;1.27;94.80;98674.44;104060;1280;102688;-76
2023/03/08 02:06:20;;;;;;;4.50;2.40;;;;;;;1.29;94.76;98678.05;104035;1276;99445;-77
2023/03/08 02:09:05;;;;;;;4.40;1.80;;;;;;;1.31;94.80;98684.85;103988;1277;99331;-76
2023/03/08 02:11:51;;;;;;;3.20;2.30;;;;;;;1.31;94.69;98687.41;103969;1274;99393;-75
2023/03/08 02:14:36;;;;;;;5.70;2.20;;;;;;;1.29;94.66;98691.47;104572;1273;100957;-76
2023/03/08 02:17:21;;;;;;;4.50;2.10;;;;;;;1.28;94.88;98692.48;104044;1274;102708;-78
2023/03/08 02:20:26;;;;;;;2.90;1.80;;;;;;;1.30;94.99;98702.04;103956;1275;99264;-77
2023/03/08 02:23:23;;;;;;;3.00;2.10;;;;;;;1.31;95.01;98698.98;103914;1273;100204;-76
2023/03/08 02:26:08;;;;;;;2.50;2.20;;;;;;;1.28;95.13;98699.41;104027;1277;99341;-77
2023/03/08 02:28:54;;;;;;;4.80;2.20;;;;;;;1.30;95.10;98699.80;103983;1274;101658;-76
2023/03/08 02:31:39;;;;;;;2.30;2.10;;;;;;;1.31;95.12;98703.92;104101;1274;103764;-76
2023/03/08 02:34:25;;;;;;;2.40;2.00;;;;;;;1.30;95.15;98701.91;104025;1279;100849;-75
2023/03/08 02:37:10;;;;;;;6.10;2.40;;;;;;;1.26;95.20;98699.39;104004;1274;99536;-76
2023/03/08 02:39:54;;;;;;;4.40;2.30;;;;;;;1.26;95.31;98711.27;103959;1274;100072;-75
2023/03/08 02:42:40;;;;;;;3.30;2.30;;;;;;;1.28;95.46;98715.86;104195;1273;100010;-76
2023/03/08 02:45:25;;;;;;;6.20;2.70;;;;;;;1.29;95.63;98715.92;104059;1274;104148;-75
2023/03/08 02:48:10;;;;;;;4.40;2.50;;;;;;;1.26;95.63;98714.53;104051;1276;100634;-77
2023/03/08 02:50:55;;;;;;;4.30;2.80;;;;;;;1.25;95.78;98716.71;104039;1277;99346;-75
2023/03/08 02:53:39;;;;;;;4.80;2.70;;;;;;;1.25;95.71;98716.88;103993;1276;99351;-75
2023/03/08 02:56:24;;;;;;;3.40;3.00;;;;;;;1.24;95.87;98721.00;104094;1277;170199;-75
2023/03/08 02:59:09;;;;;;;4.90;3.10;;;;;;;1.23;95.90;98715.58;103957;1279;104055;-76
2023/03/08 03:01:54;;;;;;;6.50;3.80;;;;;;;1.20;96.00;98715.59;104031;1277;99364;-76
2023/03/08 03:04:39;;;;;;;7.90;5.00;;;;;;;1.20;96.03;98721.72;104034;1276;97634;-76
2023/03/08 03:07:24;;;;;;;8.50;4.70;;;;;;;1.19;96.20;98730.27;104055;1277;99411;-76
2023/03/08 03:10:11;;;;;;;7.50;4.70;;;;;;;1.20;96.37;98736.77;104032;1275;99901;-76
2023/03/08 03:12:56;;;;;;;8.00;6.00;;;;;;;1.23;96.35;98740.16;104066;1273;102673;-76
2023/03/08 03:15:43;;;;;;;9.30;5.90;;;;;;;1.27;96.47;98737.97;103904;1274;100368;-76
2023/03/08 03:18:28;;;;;;;12.40;7.30;;;;;;;1.29;96.46;98741.91;104025;1276;99337;-76
2023/03/08 03:21:13;;;;;;;9.80;6.50;;;;;;;1.29;96.49;98745.38;103952;1277;99360;-74
2023/03/08 03:23:59;;;;;;;11.90;8.00;;;;;;;1.29;96.35;98753.34;104048;1278;100687;-74
2023/03/08 03:26:51;;;;;;;12.60;8.30;;;;;;;1.28;96.50;98752.42;104031;1275;103680;-76
2023/03/08 03:29:37;;;;;;;10.60;7.10;;;;;;;1.29;96.59;98753.15;103940;1273;100484;-78
2023/03/08 03:32:29;;;;;;;13.40;10.60;;;;;;;1.30;96.48;98752.02;104034;1274;99363;-76
2023/03/08 03:35:15;;;;;;;12.20;8.50;;;;;;;1.31;96.46;98756.80;104022;1273;99348;-76
2023/03/08 03:38:00;;;;;;;12.40;8.20;;;;;;;1.31;96.56;98759.44;104043;1280;99469;-77
2023/03/08 03:40:45;;;;;;;14.80;9.30;;;;;;;1.31;96.58;98758.88;105081;1273;103869;-76
2023/03/08 03:43:30;;;;;;;12.60;8.20;;;;;;;1.33;96.79;98762.16;104403;1273;99321;-77
2023/03/08 03:46:17;;;;;;;16.20;8.90;;;;;;;1.34;96.85;98761.70;103959;1280;99447;-76
2023/03/08 03:49:03;;;;;;;17.60;9.90;;;;;;;1.34;96.72;98765.57;104038;1274;100623;-76
2023/03/08 03:51:52;;;;;;;13.30;9.10;;;;;;;1.34;96.83;98768.09;104049;1274;99789;-76
2023/03/08 03:54:41;;;;;;;14.60;9.10;;;;;;;1.35;96.89;98768.80;104106;1274;102797;-77
2023/03/08 03:57:25;;;;;;;15.00;9.50;;;;;;;1.35;96.74;98773.89;104245;1276;100124;-76
2023/03/08 04:00:11;;;;;;;15.80;9.00;;;;;;;1.34;96.70;98777.88;104014;1273;99335;-76
2023/03/08 04:02:59;;;;;;;14.30;9.60;;;;;;;1.34;96.69;98778.84;104122;1273;99310;-76
2023/03/08 04:05:45;;;;;;;18.00;10.80;;;;;;;1.32;96.65;98782.34;103949;1274;99790;-76
2023/03/08 04:08:30;;;;;;;13.00;10.00;;;;;;;1.31;96.69;98778.83;104067;1274;103285;-76
2023/03/08 04:11:19;;;;;;;16.20;10.10;;;;;;;1.28;96.76;98774.84;106138;1274;99249;-75
2023/03/08 04:14:06;;;;;;;15.90;9.90;;;;;;;1.28;96.75;98779.48;103972;1273;99341;-75
2023/03/08 04:16:51;;;;;;;13.70;10.00;;;;;;;1.29;96.74;98780.55;104291;1274;99330;-76
2023/03/08 04:19:43;;;;;;;15.60;9.90;;;;;;;1.31;96.76;98782.16;104093;1276;99959;-78
2023/03/08 04:22:29;;;;;;;17.00;10.80;;;;;;;1.31;96.68;98787.19;104153;1277;102835;-76
2023/03/08 04:25:21;;;;;;;13.00;10.10;;;;;;;1.31;96.52;98792.86;104021;1277;99351;-77
2023/03/08 04:28:11;;;;;;;13.50;9.90;;;;;;;1.31;96.51;98803.09;104029;1275;99529;-77
2023/03/08 04:30:56;;;;;;;21.50;10.90;;;;;;;1.31;96.57;98809.23;104060;1276;99447;-76
2023/03/08 04:33:42;;;;;;;17.40;9.80;;;;;;;1.31;96.66;98813.61;103991;1273;99791;-76
2023/03/08 04:36:28;;;;;;;13.50;10.20;;;;;;;1.32;96.65;98817.31;104030;1275;103943;-76
2023/03/08 04:39:14;;;;;;;17.00;10.10;;;;;;;1.35;96.73;98816.98;104293;1274;99895;-76
2023/03/08 04:42:00;;;;;;;15.80;10.10;;;;;;;1.37;96.56;98819.80;104103;1274;99330;-76
2023/03/08 04:44:49;;;;;;;20.50;10.60;;;;;;;1.34;96.54;98818.50;103993;1277;99344;-77
2023/03/08 04:47:37;;;;;;;17.00;10.30;;;;;;;1.32;96.48;98816.17;104090;1273;100661;-76
2023/03/08 04:50:22;;;;;;;17.70;10.20;;;;;;;1.29;96.51;98817.36;104078;1274;104214;-76
2023/03/08 04:53:08;;;;;;;15.70;10.40;;;;;;;1.28;96.57;98825.02;106160;1273;100478;-76
2023/03/08 04:55:54;;;;;;;16.50;10.60;;;;;;;1.28;96.53;98827.59;103994;1277;100598;-74
2023/03/08 04:58:40;;;;;;;15.80;10.60;;;;;;;1.29;96.37;98830.36;104069;1277;99332;-76
2023/03/08 05:01:25;;;;;;;17.20;10.40;;;;;;;1.27;96.10;98834.65;104041;1274;99403;-76
2023/03/08 05:04:11;;;;;;;16.00;9.80;;;;;;;1.24;96.18;98840.63;104185;1278;103692;-78
2023/03/08 05:06:56;;;;;;;14.00;9.30;;;;;;;1.23;95.91;98841.62;104160;1274;99754;-76
2023/03/08 05:09:43;;;;;;;19.00;10.50;;;;;;;1.22;95.70;98844.86;104032;1277;100613;-76
2023/03/08 05:12:28;;;;;;;14.80;10.30;;;;;;;1.19;95.48;98849.58;104071;1274;99426;-75
2023/03/08 05:15:15;;;;;;;14.00;10.00;;;;;;;1.19;95.57;98847.89;105611;1276;99322;-75
2023/03/08 05:18:00;;;;;;;17.00;11.00;;;;;;;1.18;95.45;98851.16;104113;1277;104918;-75
2023/03/08 05:20:57;;;;;;;16.40;10.00;;;;;;;1.17;95.41;98851.27;104224;1275;100596;-75
2023/03/08 05:23:43;;;;;;;18.80;11.70;;;;;;;1.16;95.15;98852.02;105128;1274;99272;-76
2023/03/08 05:26:28;;;;;;;14.20;9.50;;;;;;;1.16;95.06;98861.41;104105;1274;100601;-75
2023/03/08 05:29:14;;;;;;;17.80;10.40;;;;;;;1.14;94.77;98858.95;104051;1277;99866;-77
2023/03/08 05:32:01;;;;;;;14.30;8.10;;;;;;;1.12;94.57;98864.63;104084;1274;104119;-77
2023/03/08 05:34:46;;;;;;;14.30;9.00;;;;;;;1.10;94.20;98865.02;104019;1273;100082;-77
2023/03/08 05:37:36;;;;;;;15.10;8.90;;;;;;;1.09;94.04;98870.38;104022;1274;99329;-76
2023/03/08 05:40:21;;;;;;;15.50;9.50;;;;;;;1.09;94.04;98879.58;104003;1279;99436;-76
2023/03/08 05:43:07;;;;;;;14.40;9.20;;;;;;;1.09;94.05;98885.30;104007;1275;99826;-76
2023/03/08 05:45:59;;;;;;;17.10;10.70;;;;;;;1.09;93.94;98891.34;104058;1277;103820;-75
2023/03/08 05:48:44;;;;;;;13.90;9.60;;;;;;;1.09;93.83;98892.75;104294;1274;99413;-76
2023/03/08 05:51:30;;;;;;;14.90;9.00;;;;;;;1.08;93.65;98895.79;104083;1273;99421;-77
2023/03/08 05:54:15;;;;;;;13.30;9.20;;;;;;;1.08;93.50;98900.40;104070;1279;99472;-76
2023/03/08 05:57:01;;;;;;;14.30;9.60;;;;;;;1.08;93.36;98908.81;104082;1274;100097;-76
2023/03/08 05:59:46;;;;;;;14.30;8.50;;;;;;;1.09;93.11;98911.94;104116;1277;102814;-76
2023/03/08 06:02:33;;;;;;;11.30;8.50;;;;;;;1.07;92.77;98914.73;104160;1277;100745;-76
2023/03/08 06:05:18;;;;;;;13.40;9.50;;;;;;;1.05;92.60;98924.09;104060;1274;99680;-76
2023/03/08 06:08:04;;;;;;;17.40;8.80;;;;;;;1.05;92.37;98924.70;104161;1274;99292;-76
2023/03/08 06:10:49;;;;;;;18.20;9.00;;;;;;;1.03;92.12;98927.52;104105;1277;99271;-76
2023/03/08 06:13:35;;;;;;;19.20;9.40;;;;;;;1.01;92.11;98930.13;104101;1273;103454;-76
2023/03/08 06:16:19;;;;;;;16.30;10.70;;;;;;;1.03;92.11;98934.56;104034;1274;99324;-76
2023/03/08 06:19:05;;;;;;;18.00;10.10;;;;;;;1.04;92.03;98939.85;104161;1273;99380;-77
2023/03/08 06:21:51;;;;;;;34.80;17.40;;;;;;;1.04;91.95;98950.08;104007;1275;99402;-77
2023/03/08 06:24:37;;;;;;;28.30;14.20;;;;;;;1.05;91.81;98954.36;104195;1274;99921;-77
2023/03/08 06:27:24;;;;;;;30.60;17.90;;;;;;;1.05;91.78;98955.62;103983;1278;103941;-76
2023/03/08 06:30:11;;;;;;;20.80;13.10;;;;;;;1.06;91.72;98961.48;104132;1275;100471;-77
2023/03/08 06:32:56;;;;;;;23.00;11.80;;;;;;;1.06;91.61;98963.55;104078;1280;99271;-75
2023/03/08 06:35:41;;;;;;;19.00;11.60;;;;;;;1.05;91.34;98966.98;104117;1273;99853;-76
2023/03/08 06:38:28;;;;;;;19.50;11.00;;;;;;;1.07;91.31;98969.98;104008;1279;99419;-75
2023/03/08 06:41:15;;;;;;;23.90;15.50;;;;;;;1.10;91.42;98976.67;104138;1277;104100;-75
2023/03/08 06:44:00;;;;;;;19.10;12.30;;;;;;;1.14;91.39;98982.08;104050;1273;100549;-76
2023/03/08 06:46:46;;;;;;;20.80;12.90;;;;;;;1.16;91.37;98988.98;104062;1278;99353;-77
2023/03/08 06:49:30;;;;;;;19.30;12.50;;;;;;;1.20;91.37;98995.73;104095;1277;99321;-77
2023/03/08 06:52:16;;;;;;;17.00;9.60;;;;;;;1.23;91.00;98997.16;104070;1273;99993;-76
2023/03/08 06:55:05;;;;;;;17.90;11.10;;;;;;;1.26;90.88;99002.09;104081;1273;104298;-76
2023/03/08 06:57:50;;;;;;;15.30;9.50;;;;;;;1.31;90.81;99002.65;104063;1275;100521;-76
2023/03/08 07:00:35;;;;;;;16.80;9.80;;;;;;;1.33;90.48;99005.68;104157;1277;99466;-77
2023/03/08 07:03:20;;;;;;;13.70;8.10;;;;;;;1.37;90.42;99010.55;104012;1279;99332;-76
2023/03/08 07:06:09;;;;;;;17.60;9.50;;;;;;;1.41;90.34;99011.88;104103;1275;99223;-75
2023/03/08 07:08:53;;;;;;;14.70;9.00;;;;;;;1.45;90.31;99009.67;104058;1275;102738;-75
2023/03/08 07:11:38;;;;;;;16.60;9.50;;;;;;;1.46;90.31;99011.48;104100;1277;99723;-77
2023/03/08 07:14:23;;;;;;;15.90;9.10;;;;;;;1.50;90.15;99015.62;104038;1277;99365;-76
2023/03/08 07:17:08;;;;;;;15.50;8.20;;;;;;;1.53;90.20;99016.89;103981;1279;99778;-76
2023/03/08 07:19:53;;;;;;;15.50;8.60;;;;;;;1.56;90.18;99019.40;104167;1274;99370;-76
2023/03/08 07:22:40;;;;;;;22.00;11.10;;;;;;;1.55;89.87;99019.10;104033;1277;104892;-76
2023/03/08 07:25:25;;;;;;;14.30;8.90;;;;;;;1.56;90.13;99019.75;104060;1273;100598;-76
2023/03/08 07:28:10;;;;;;;14.30;8.40;;;;;;;1.58;90.07;99021.11;103996;1274;99325;-75
2023/03/08 07:30:55;;;;;;;9.70;7.40;;;;;;;1.60;89.69;99022.69;104047;1280;99785;-76
2023/03/08 07:33:39;;;;;;;16.00;8.50;;;;;;;1.63;89.69;99026.34;104065;1275;99965;-76
2023/03/08 07:36:24;;;;;;;15.60;8.40;;;;;;;1.70;89.95;99026.29;104113;1277;104195;-77
2023/03/08 07:39:09;;;;;;;15.10;8.30;;;;;;;1.76;89.96;99031.05;104205;1274;99345;-76
2023/03/08 07:41:54;;;;;;;15.70;8.40;;;;;;;1.81;89.90;99035.77;104094;1280;99441;-76
2023/03/08 07:44:38;;;;;;;18.70;9.60;;;;;;;1.85;89.67;99037.73;104144;1279;99329;-77
2023/03/08 07:47:23;;;;;;;20.00;10.00;;;;;;;1.87;88.97;99037.80;104132;1274;99268;-76
2023/03/08 07:50:09;;;;;;;18.80;9.70;;;;;;;1.92;89.23;99037.39;104669;1277;103476;-86
2023/03/08 07:52:54;;;;;;;13.00;8.40;;;;;;;2.01;89.55;99042.30;104996;1275;100526;-78
2023/03/08 07:55:39;;;;;;;16.00;9.40;;;;;;;2.07;89.34;99044.98;104647;1277;99516;-82
2023/03/08 07:58:26;;;;;;;13.60;8.40;;;;;;;2.11;88.90;99046.83;105246;1277;99355;-80
2023/03/08 08:01:13;;;;;;;25.40;14.10;;;;;;;2.16;88.70;99053.52;105337;1274;99854;-82
2023/03/08 08:03:59;;;;;;;16.90;11.30;;;;;;;2.23;88.51;99056.91;105737;1273;102814;-81
2023/03/08 08:06:43;;;;;;;16.30;11.60;;;;;;;2.29;87.94;99058.52;104962;1274;100405;-80
2023/03/08 08:09:28;;;;;;;13.20;8.90;;;;;;;2.34;87.37;99059.71;104878;1274;99451;-77
2023/03/08 08:12:14;;;;;;;15.40;9.40;;;;;;;2.34;86.68;99060.24;105661;1277;99416;-81
2023/03/08 08:14:58;;;;;;;11.60;7.90;;;;;;;2.32;86.44;99061.84;105733;1274;99861;-80
2023/03/08 08:17:43;;;;;;;10.50;6.60;;;;;;;2.32;86.12;99063.06;104869;1274;104075;-80
2023/03/08 08:20:29;;;;;;;11.90;7.90;;;;;;;2.32;85.73;99066.23;104890;1275;100397;-86
2023/03/08 08:23:14;;;;;;;13.10;7.00;;;;;;;2.35;85.91;99064.36;105332;1274;99373;-83
2023/03/08 08:26:04;;;;;;;11.40;7.80;;;;;;;2.43;85.90;99064.89;105244;1273;99380;-83
2023/03/08 08:28:54;;;;;;;13.60;8.40;;;;;;;2.48;85.57;99070.16;105217;1279;99435;-81
2023/03/08 08:31:39;;;;;;;15.40;8.20;;;;;;;2.49;85.18;99078.98;105341;1274;102742;-80
2023/03/08 08:34:24;;;;;;;14.30;8.00;;;;;;;2.53;84.87;99074.52;105343;1273;99297;-80
2023/03/08 08:37:10;;;;;;;13.70;9.10;;;;;;;2.53;83.92;99077.29;104720;1278;99942;-79
2023/03/08 08:39:55;;;;;;;14.40;9.30;;;;;;;2.52;83.67;99076.30;104837;1276;99335;-79
2023/03/08 08:42:40;;;;;;;13.70;7.60;;;;;;;2.53;83.21;99080.62;105024;1273;99252;-79
2023/03/08 08:45:25;;;;;;;17.30;7.60;;;;;;;2.49;82.49;99080.71;104833;1274;102677;-85
2023/03/08 08:48:10;;;;;;;13.90;8.20;;;;;;;2.49;82.86;99086.07;104632;1274;100259;-79
2023/03/08 08:50:56;;;;;;;14.50;7.30;;;;;;;2.57;83.58;99090.72;105186;1277;99687;-76
2023/03/08 08:53:43;;;;;;;10.40;7.30;;;;;;;2.65;83.60;99091.08;104156;1277;100663;-76
2023/03/08 08:56:28;;;;;;;18.20;7.20;;;;;;;2.70;83.66;99094.78;103993;1278;99274;-75
2023/03/08 08:59:15;;;;;;;9.90;6.20;;;;;;;2.73;83.38;99095.83;104169;1279;102688;-77
2023/03/08 09:02:00;;;;;;;11.60;6.30;;;;;;;2.70;82.72;99097.49;104200;1277;100159;-75
2023/03/08 09:04:46;;;;;;;8.20;5.20;;;;;;;2.72;82.94;99099.81;104679;1277;99383;-86
2023/03/08 09:07:31;;;;;;;13.80;7.00;;;;;;;2.74;82.42;99098.46;105177;1279;99324;-75
2023/03/08 09:10:16;;;;;;;14.90;5.50;;;;;;;2.80;82.52;99100.33;104421;1273;99250;-75
2023/03/08 09:13:01;;;;;;;13.90;6.30;;;;;;;2.85;82.01;99105.31;104670;1277;103849;-74
2023/03/08 09:15:46;;;;;;;8.70;3.70;;;;;;;2.86;80.67;99102.27;105361;1274;99332;-78
2023/03/08 09:18:31;;;;;;;8.30;4.20;;;;;;;2.85;79.81;99102.39;104272;1277;100341;-76
2023/03/08 09:21:17;;;;;;;8.50;3.90;;;;;;;2.77;79.05;99104.83;104383;1277;99796;-73
2023/03/08 09:24:04;;;;;;;12.00;6.80;;;;;;;2.68;78.23;99108.90;104464;1277;99924;-76
2023/03/08 09:26:49;;;;;;;9.30;6.40;;;;;;;2.62;78.34;99112.08;104549;1274;103448;-84
2023/03/08 09:29:36;;;;;;;13.60;7.20;;;;;;;2.60;78.42;99112.14;105692;1274;100398;-78
2023/03/08 09:32:21;;;;;;;15.50;8.30;;;;;;;2.56;78.35;99109.60;104615;1277;99494;-80
2023/03/08 09:35:07;;;;;;;11.80;6.10;;;;;;;2.54;78.14;99105.34;105199;1275;99524;-81
2023/03/08 09:37:52;;;;;;;10.50;5.90;;;;;;;2.58;78.31;99107.54;105736;1273;99288;-89
2023/03/08 09:40:56;;;;;;;4.50;4.00;;;;;;;2.62;78.29;99105.90;105227;1278;103886;-88
2023/03/08 09:44:10;;;;;;;10.10;5.70;;;;;;;2.65;78.37;99103.80;105258;1273;99228;-85
2023/03/08 09:47:02;;;;;;;14.10;7.40;;;;;;;2.69;77.96;99098.76;105136;1275;100077;-81
2023/03/08 09:49:51;;;;;;;10.40;5.70;;;;;;;2.81;78.16;99102.66;105252;1273;99352;-82
2023/03/08 09:53:23;;;;;;;9.60;5.80;;;;;;;3.00;78.73;99093.39;105244;1277;99877;-82
2023/03/08 09:56:23;;;;;;;7.80;4.70;;;;;;;3.19;78.68;99103.94;105590;1277;104974;-79
2023/03/08 09:59:21;;;;;;;7.00;4.80;;;;;;;3.29;77.46;99104.63;105119;1273;100231;-79
2023/03/08 10:02:45;;;;;;;11.70;5.80;;;;;;;3.41;77.09;99107.72;104954;1279;99325;-78
2023/03/08 10:06:25;;;;;;;7.20;5.00;;;;;;;3.55;76.19;99106.21;104985;1277;99468;-89
2023/03/08 10:09:29;;;;;;;41.30;19.40;;;;;;;3.62;75.80;99108.30;103877;1286;99400;-78
2023/03/08 10:12:47;;;;;;;20.90;12.50;;;;;;;3.62;74.99;99106.61;104843;1277;103814;-79
2023/03/08 10:15:39;;;;;;;17.40;11.10;;;;;;;3.55;74.41;99110.36;104422;1277;100410;-77
2023/03/08 10:18:51;;;;;;;6.40;5.30;;;;;;;3.53;74.28;99109.08;105176;1272;98708;-79
2023/03/08 10:21:40;;;;;;;9.00;5.30;;;;;;;3.64;75.22;99110.96;104553;1274;99457;-78
2023/03/08 10:24:48;;;;;;;8.10;4.60;;;;;;;3.79;75.38;99109.59;104805;1273;101183;-79
2023/03/08 10:27:34;;;;;;;9.10;5.20;;;;;;;3.91;74.60;99108.79;105454;1273;102685;-85
2023/03/08 10:30:24;;;;;;;6.70;4.50;;;;;;;3.98;74.07;99107.97;105173;1282;100381;-82
2023/03/08 10:33:16;;;;;;;7.80;4.70;;;;;;;4.02;73.87;99103.77;105224;1274;99693;-79
2023/03/08 10:36:08;;;;;;;8.90;4.70;;;;;;;3.97;73.09;99106.98;104647;1273;99481;-77
2023/03/08 10:39:10;;;;;;;7.00;4.80;;;;;;;3.86;72.07;99112.51;104673;1279;99392;-79
2023/03/08 10:41:58;;;;;;;7.30;5.50;;;;;;;3.75;72.12;99109.64;104543;1280;104494;-77
2023/03/08 10:44:52;;;;;;;18.50;9.20;;;;;;;3.70;72.39;99110.61;104052;1277;99400;-77
2023/03/08 10:47:37;;;;;;;18.60;9.60;;;;;;;3.69;72.47;99110.52;104510;1273;99336;-79
2023/03/08 10:50:28;;;;;;;44.70;21.10;;;;;;;3.68;72.08;99112.55;105239;1277;99494;-85
2023/03/08 10:53:23;;;;;;;26.90;14.00;;;;;;;3.68;72.61;99110.03;104760;1277;99721;-87
2023/03/08 10:56:43;;;;;;;37.00;17.40;;;;;;;3.80;72.89;99110.98;104846;1275;103444;-77
2023/03/08 10:59:31;;;;;;;14.00;7.80;;;;;;;3.95;72.96;99109.05;105012;1274;100365;-83
2023/03/08 11:02:21;;;;;;;29.70;13.90;;;;;;;4.02;72.10;99113.28;105452;1277;99267;-84
2023/03/08 11:05:20;;;;;;;30.90;16.50;;;;;;;4.00;70.49;99121.20;105226;1273;99274;-82
2023/03/08 11:08:16;;;;;;;17.70;9.20;;;;;;;3.87;70.08;99121.28;105337;1280;99893;-79
2023/03/08 11:11:08;;;;;;;10.60;5.60;;;;;;;3.78;70.54;99119.18;105346;1275;104028;-86
2023/03/08 11:13:54;;;;;;;9.80;5.20;;;;;;;3.68;70.24;99118.04;104139;1283;99329;-74
2023/03/08 11:16:42;;;;;;;10.80;5.20;;;;;;;3.60;70.46;99112.58;105141;1277;99357;-76
2023/03/08 11:20:09;;;;;;;10.40;4.90;;;;;;;3.62;70.86;99113.63;104184;1274;99354;-75
2023/03/08 11:23:03;;;;;;;8.80;3.80;;;;;;;3.70;71.05;99116.88;104198;1277;99815;-76
2023/03/08 11:25:54;;;;;;;10.30;5.00;;;;;;;3.81;71.60;99110.45;104138;1277;102675;-75
2023/03/08 11:29:04;;;;;;;18.60;10.40;;;;;;;4.02;72.79;99103.66;104842;1277;100708;-77
2023/03/08 11:31:58;;;;;;;15.30;12.30;;;;;;;4.16;72.31;99092.05;104430;1273;99396;-75
2023/03/08 11:35:24;;;;;;;7.50;4.90;;;;;;;4.16;71.36;99092.70;104107;1276;100529;-74
2023/03/08 11:38:24;;;;;;;5.60;3.50;;;;;;;4.13;70.54;99088.39;103993;1280;99243;-74
2023/03/08 11:41:23;;;;;;;6.00;3.40;;;;;;;4.17;70.17;99082.36;104037;1287;102724;-75
2023/03/08 11:44:17;;;;;;;6.30;3.60;;;;;;;4.29;69.89;99075.36;104663;1276;100230;-78
2023/03/08 11:47:28;;;;;;;12.70;6.70;;;;;;;4.38;68.90;99076.23;104634;1277;99357;-82
2023/03/08 11:50:25;;;;;;;7.50;4.90;;;;;;;4.50;69.70;99072.96;104546;1277;99768;-77
2023/03/08 11:53:21;;;;;;;6.50;3.90;;;;;;;4.67;70.14;99074.45;104524;1279;100646;-76
2023/03/08 11:56:37;;;;;;;9.30;5.30;;;;;;;4.79;69.17;99074.65;104250;1287;102759;-84
2023/03/08 11:59:41;;;;;;;18.00;7.60;;;;;;;4.87;68.77;99078.09;105453;1273;100956;-78
2023/03/08 12:02:29;;;;;;;19.40;8.70;;;;;;;4.92;68.69;99077.54;105366;1277;99366;-80
2023/03/08 12:05:34;;;;;;;14.50;8.00;;;;;;;4.97;68.84;99075.76;105288;1277;99332;-83
2023/03/08 12:08:19;;;;;;;8.90;4.90;;;;;;;4.98;67.99;99073.41;105269;1282;99794;-80
2023/03/08 12:11:26;;;;;;;10.20;4.10;;;;;;;5.00;67.42;99074.65;105276;1287;103981;-84
2023/03/08 12:14:29;;;;;;;10.00;4.30;;;;;;;4.98;68.28;99073.94;105536;1277;100758;-80
2023/03/08 12:17:29;;;;;;;6.30;3.70;;;;;;;5.07;68.53;99072.73;105463;1276;99938;-83
2023/03/08 12:20:14;;;;;;;7.50;4.60;;;;;;;5.08;67.50;99070.95;105403;1274;99323;-85
2023/03/08 12:23:12;;;;;;;8.90;5.10;;;;;;;5.00;67.16;99078.10;105073;1273;99291;-85
2023/03/08 12:26:22;;;;;;;11.10;3.90;;;;;;;4.89;66.61;99082.16;104912;1278;103899;-89
2023/03/08 12:29:20;;;;;;;9.90;4.10;;;;;;;4.76;66.90;99081.73;104990;1277;99370;-84
2023/03/08 12:32:08;;;;;;;6.40;3.20;;;;;;;4.70;67.12;99079.58;105192;1277;99350;-83
2023/03/08 12:35:06;;;;;;;9.00;5.80;;;;;;;4.75;67.84;99078.94;105128;1275;99339;-83
2023/03/08 12:38:25;;;;;;;12.10;5.90;;;;;;;4.87;68.12;99075.24;105276;1274;99847;-82
2023/03/08 12:41:24;;;;;;;7.70;5.20;;;;;;;4.87;67.90;99078.42;105544;1273;102798;-78
2023/03/08 12:44:24;;;;;;;7.30;4.20;;;;;;;4.83;67.76;99083.16;105077;1273;100630;-81
2023/03/08 12:47:19;;;;;;;9.90;4.60;;;;;;;4.75;67.27;99076.90;105502;1273;98715;-79
2023/03/08 12:50:08;;;;;;;8.30;4.30;;;;;;;4.66;67.02;99077.90;105141;1273;100525;-86
2023/03/08 12:52:55;;;;;;;7.10;3.90;;;;;;;4.64;67.39;99081.06;105408;1276;99186;-83
2023/03/08 12:55:40;;;;;;;7.10;4.60;;;;;;;4.66;67.62;99077.41;105284;1274;103915;-86
2023/03/08 12:58:25;;;;;;;13.30;5.30;;;;;;;4.72;67.77;99076.63;104892;1279;100065;-80
2023/03/08 13:01:28;;;;;;;8.20;5.20;;;;;;;4.83;68.01;99072.84;104861;1284;99357;-77
2023/03/08 13:04:31;;;;;;;10.10;5.10;;;;;;;4.88;67.90;99070.08;105120;1274;99253;-79
2023/03/08 13:07:37;;;;;;;14.70;5.80;;;;;;;4.85;67.47;99070.65;105509;1276;99208;-87